Time;durP1;ratioP1;P1;durP2;ratioP2;P2;SDS_P1;SDS_P2;PMS_P1;PMS_P2;Temp;Humidity;BMP_temperature;BMP_pressure;BME280_temperature;BME280_humidity;BME280_pressure;Samples;Min_cycle;Max_cycle;Signal;HPM_P1;HPM_P2
2022/01/28 00:02:11;;;;;;;20.17;10.10;;;;;;;;;;5041851;28;20103;-66
2022/01/28 00:04:38;;;;;;;17.58;11.52;;;;;;;;;;5041171;28;20049;-66
2022/01/28 00:07:04;;;;;;;16.58;10.13;;;;;;;;;;5040969;28;20187;-67
2022/01/28 00:09:31;;;;;;;14.82;9.57;;;;;;;;;;5041361;28;20357;-66
2022/01/28 00:11:57;;;;;;;13.90;8.93;;;;;;;;;;5040502;28;20076;-68
2022/01/28 00:14:34;;;;;;;18.23;11.38;;;;;;;;;;5033619;28;20053;-65
2022/01/28 01:53:30;;;;;;;15.65;9.02;;;;;;;;;;5014056;28;20089;-67
2022/01/28 01:55:57;;;;;;;15.43;9.63;;;;;;;;;;5029695;28;20488;-65
2022/01/28 01:58:29;;;;;;;14.07;8.70;;;;;;;;;;5032464;28;20083;-65
2022/01/28 02:01:00;;;;;;;14.52;9.13;;;;;;;;;;5032846;28;20075;-67
2022/01/28 02:11:01;;;;;;;17.35;9.43;;;;;;;;;;5013758;28;20552;-66
2022/01/28 02:13:29;;;;;;;14.20;9.30;;;;;;;;;;5013560;28;20062;-65
2022/01/28 02:15:57;;;;;;;14.52;9.27;;;;;;;;;;5013772;28;20086;-64
2022/01/28 02:18:24;;;;;;;16.58;10.98;;;;;;;;;;5013759;28;20057;-65
2022/01/28 02:20:53;;;;;;;17.23;10.85;;;;;;;;;;5013604;28;20046;-68
2022/01/28 02:23:21;;;;;;;16.70;10.13;;;;;;;;;;5013306;28;20077;-65
2022/01/28 02:25:48;;;;;;;17.45;10.05;;;;;;;;;;5013633;28;20053;-66
2022/01/28 02:28:18;;;;;;;16.15;9.77;;;;;;;;;;5028594;28;20421;-66
2022/01/28 02:30:45;;;;;;;19.88;11.45;;;;;;;;;;5031782;28;20081;-67
2022/01/28 02:33:20;;;;;;;19.45;10.63;;;;;;;;;;5032797;28;20049;-65
2022/01/28 02:35:48;;;;;;;22.75;11.40;;;;;;;;;;5033059;28;20084;-67
2022/01/28 02:38:17;;;;;;;17.35;10.15;;;;;;;;;;5033012;28;20060;-65
2022/01/28 02:40:49;;;;;;;17.35;10.05;;;;;;;;;;5032820;28;20072;-65
2022/01/28 02:45:46;;;;;;;15.55;10.13;;;;;;;;;;5032042;28;20658;-67
2022/01/28 02:48:18;;;;;;;15.98;10.07;;;;;;;;;;5033053;28;20120;-64
2022/01/28 02:51:02;;;;;;;19.77;9.57;;;;;;;;;;5032800;28;20053;-65
2022/01/28 02:53:39;;;;;;;17.48;9.73;;;;;;;;;;5032552;28;20456;-65
2022/01/28 02:56:14;;;;;;;17.02;9.48;;;;;;;;;;5031897;28;20083;-65
2022/01/28 02:58:41;;;;;;;14.20;9.02;;;;;;;;;;5032538;28;20054;-65
2022/01/28 03:01:08;;;;;;;15.98;9.40;;;;;;;;;;5032630;28;20045;-66
2022/01/28 03:03:35;;;;;;;15.45;9.18;;;;;;;;;;5032282;28;20463;-65
2022/01/28 03:06:02;;;;;;;14.30;9.02;;;;;;;;;;5032736;28;20084;-64
2022/01/28 03:08:30;;;;;;;17.23;9.32;;;;;;;;;;5032679;28;20053;-65
2022/01/28 03:16:06;;;;;;;17.55;9.50;;;;;;;;;;5032417;28;20049;-65
2022/01/28 03:18:43;;;;;;;14.73;9.07;;;;;;;;;;5032264;28;20053;-66
2022/01/28 03:21:21;;;;;;;13.38;8.60;;;;;;;;;;5032337;28;20550;-65
2022/01/28 03:23:48;;;;;;;18.23;10.15;;;;;;;;;;5032058;28;20115;-65
2022/01/28 03:26:16;;;;;;;15.60;9.55;;;;;;;;;;5032381;28;20057;-65
2022/01/28 03:28:42;;;;;;;20.15;9.43;;;;;;;;;;5032124;28;20049;-65
2022/01/28 03:31:09;;;;;;;15.93;9.93;;;;;;;;;;5032093;28;20530;-65
2022/01/28 03:33:36;;;;;;;14.00;9.93;;;;;;;;;;5031992;28;20049;-64
2022/01/28 03:36:07;;;;;;;15.57;9.35;;;;;;;;;;5032156;28;20049;-66
2022/01/28 03:38:34;;;;;;;17.13;9.93;;;;;;;;;;5031665;28;20103;-65
2022/01/28 03:41:00;;;;;;;12.57;7.95;;;;;;;;;;5032043;28;20046;-65
2022/01/28 03:43:27;;;;;;;13.45;8.52;;;;;;;;;;5031687;28;20119;-67
2022/01/28 03:45:54;;;;;;;13.27;8.60;;;;;;;;;;5032090;28;20103;-66
2022/01/28 03:48:20;;;;;;;15.55;9.05;;;;;;;;;;5031970;28;20050;-65
2022/01/28 03:50:47;;;;;;;16.88;8.52;;;;;;;;;;5031688;28;20103;-65
2022/01/28 03:53:13;;;;;;;15.07;8.23;;;;;;;;;;5031598;28;20092;-67
2022/01/28 03:55:40;;;;;;;12.23;8.00;;;;;;;;;;5031762;28;20427;-66
2022/01/28 03:58:07;;;;;;;14.75;8.63;;;;;;;;;;5030877;28;20050;-65
2022/01/28 04:00:33;;;;;;;13.93;7.97;;;;;;;;;;5031668;28;20049;-65
2022/01/28 04:13:50;;;;;;;12.18;7.45;;;;;;;;;;5009757;28;20105;-67
2022/01/28 04:16:30;;;;;;;11.32;7.15;;;;;;;;;;5013003;28;20049;-67
2022/01/28 04:19:01;;;;;;;11.55;7.18;;;;;;;;;;5031576;28;20080;-67
2022/01/28 04:21:29;;;;;;;13.45;7.65;;;;;;;;;;5031664;28;20136;-67
2022/01/28 04:23:56;;;;;;;16.23;8.90;;;;;;;;;;5031464;28;20050;-66
2022/01/28 04:26:22;;;;;;;10.88;7.38;;;;;;;;;;5031626;28;20053;-67
2022/01/28 04:28:49;;;;;;;14.38;7.68;;;;;;;;;;5031385;28;20558;-67
2022/01/28 04:31:15;;;;;;;16.33;8.50;;;;;;;;;;5031641;28;20049;-66
2022/01/28 04:33:42;;;;;;;10.93;7.13;;;;;;;;;;5031316;28;20111;-66
2022/01/28 04:36:11;;;;;;;13.38;8.13;;;;;;;;;;5031517;28;20496;-66
2022/01/28 04:38:50;;;;;;;12.60;8.35;;;;;;;;;;5031303;28;20212;-66
2022/01/28 04:41:35;;;;;;;13.38;7.07;;;;;;;;;;5031526;28;20049;-66
2022/01/28 04:44:10;;;;;;;13.60;7.32;;;;;;;;;;5031185;28;20057;-65
2022/01/28 04:46:48;;;;;;;13.57;7.68;;;;;;;;;;5031261;28;20489;-65
2022/01/28 04:49:22;;;;;;;12.73;8.38;;;;;;;;;;5031395;28;20053;-66
2022/01/28 05:27:46;;;;;;;17.98;9.65;;;;;;;;;;5034297;28;20081;-66
2022/01/28 05:30:13;;;;;;;24.08;11.60;;;;;;;;;;5034596;28;20104;-66
2022/01/28 05:32:40;;;;;;;25.70;11.63;;;;;;;;;;5034198;28;20045;-65
2022/01/28 05:35:07;;;;;;;18.80;10.80;;;;;;;;;;5034542;28;20085;-65
2022/01/28 05:37:34;;;;;;;22.25;10.68;;;;;;;;;;5034235;28;20084;-65
2022/01/28 05:40:00;;;;;;;20.92;10.98;;;;;;;;;;5034468;28;20054;-66
2022/01/28 05:42:27;;;;;;;22.27;11.88;;;;;;;;;;5034308;28;20045;-67
2022/01/28 05:44:54;;;;;;;20.38;11.20;;;;;;;;;;5034095;28;20049;-65
2022/01/28 05:47:21;;;;;;;24.20;12.52;;;;;;;;;;5034249;28;20097;-68
2022/01/28 05:49:48;;;;;;;22.27;11.65;;;;;;;;;;5032755;28;20049;-66
2022/01/28 05:52:14;;;;;;;22.52;11.52;;;;;;;;;;5034029;28;20080;-67
2022/01/28 05:54:41;;;;;;;22.42;11.95;;;;;;;;;;5032775;28;20115;-67
2022/01/28 05:57:09;;;;;;;24.98;13.10;;;;;;;;;;5034049;28;20060;-65
2022/01/28 05:59:38;;;;;;;26.45;13.50;;;;;;;;;;5033906;28;20049;-66
2022/01/28 06:02:04;;;;;;;24.30;12.50;;;;;;;;;;5034012;28;20491;-66
2022/01/28 06:04:31;;;;;;;30.25;14.80;;;;;;;;;;5033633;28;20050;-65
2022/01/28 06:06:58;;;;;;;23.63;11.98;;;;;;;;;;5033788;28;20119;-66
2022/01/28 06:09:24;;;;;;;24.80;13.23;;;;;;;;;;5033665;28;20053;-66
2022/01/28 06:11:51;;;;;;;25.33;11.25;;;;;;;;;;5033869;28;20493;-67
2022/01/28 06:14:17;;;;;;;21.35;11.90;;;;;;;;;;5033341;28;20402;-67
2022/01/28 06:16:44;;;;;;;18.08;10.00;;;;;;;;;;5033483;28;20500;-66
2022/01/28 06:19:11;;;;;;;17.42;10.50;;;;;;;;;;5033555;28;20127;-66
2022/01/28 06:21:37;;;;;;;18.08;9.25;;;;;;;;;;5032869;28;20171;-68
2022/01/28 06:24:04;;;;;;;14.80;8.70;;;;;;;;;;5033521;28;20095;-66
2022/01/28 06:26:31;;;;;;;16.80;8.77;;;;;;;;;;5033255;28;20076;-67
2022/01/28 06:28:57;;;;;;;17.17;9.85;;;;;;;;;;5033234;28;20081;-67
2022/01/28 06:31:24;;;;;;;17.88;9.18;;;;;;;;;;5033292;28;20092;-67
2022/01/28 06:33:51;;;;;;;19.83;10.05;;;;;;;;;;5033156;28;20056;-67
2022/01/28 06:36:20;;;;;;;13.98;8.75;;;;;;;;;;5033097;28;20045;-67
2022/01/28 06:38:47;;;;;;;16.17;9.07;;;;;;;;;;5033363;28;20122;-66
2022/01/28 06:41:14;;;;;;;18.17;10.05;;;;;;;;;;5033138;28;20049;-67
2022/01/28 06:43:41;;;;;;;17.98;9.77;;;;;;;;;;5032836;28;20084;-67
2022/01/28 06:46:07;;;;;;;19.20;11.50;;;;;;;;;;5033130;28;20049;-67
2022/01/28 06:48:34;;;;;;;21.05;11.07;;;;;;;;;;5032903;28;20431;-67
2022/01/28 06:51:01;;;;;;;23.88;11.25;;;;;;;;;;5032951;28;20107;-67
2022/01/28 06:53:27;;;;;;;18.70;9.80;;;;;;;;;;5032771;28;20060;-68
2022/01/28 06:55:55;;;;;;;19.98;10.65;;;;;;;;;;5032550;28;20069;-67
2022/01/28 06:58:21;;;;;;;23.63;10.63;;;;;;;;;;5032772;28;20072;-67
2022/01/28 07:00:48;;;;;;;20.30;10.48;;;;;;;;;;5032805;28;20053;-66
2022/01/28 07:03:15;;;;;;;17.50;9.85;;;;;;;;;;5031358;28;20045;-66
2022/01/28 07:05:42;;;;;;;20.13;10.02;;;;;;;;;;5032596;28;20049;-66
2022/01/28 07:08:09;;;;;;;23.60;11.18;;;;;;;;;;5031321;28;20076;-67
2022/01/28 07:10:35;;;;;;;17.77;8.77;;;;;;;;;;5030171;28;20088;-65
2022/01/28 07:13:02;;;;;;;21.05;9.57;;;;;;;;;;5030220;28;20045;-65
2022/01/28 07:15:29;;;;;;;18.80;10.38;;;;;;;;;;5030420;28;20049;-66
2022/01/28 07:18:00;;;;;;;20.90;9.88;;;;;;;;;;5030508;28;20144;-65
2022/01/28 07:20:29;;;;;;;16.70;9.88;;;;;;;;;;5030270;28;20298;-67
2022/01/28 07:22:56;;;;;;;20.63;10.23;;;;;;;;;;5029814;28;20084;-65
2022/01/28 07:25:22;;;;;;;16.98;10.98;;;;;;;;;;5030493;28;20479;-65
2022/01/28 07:27:49;;;;;;;17.42;9.73;;;;;;;;;;5030047;28;20452;-65
2022/01/28 07:30:15;;;;;;;18.88;10.90;;;;;;;;;;5030221;28;20104;-65
2022/01/28 07:32:42;;;;;;;19.05;10.98;;;;;;;;;;5029509;28;20052;-64
2022/01/28 07:35:11;;;;;;;21.95;11.00;;;;;;;;;;5029482;28;20060;-65
2022/01/28 07:37:38;;;;;;;16.85;10.35;;;;;;;;;;5029935;28;20053;-65
2022/01/28 07:40:05;;;;;;;20.15;10.27;;;;;;;;;;5030215;28;20057;-63
2022/01/28 07:42:34;;;;;;;24.35;10.60;;;;;;;;;;5030008;28;20053;-63
2022/01/28 07:45:03;;;;;;;21.38;10.73;;;;;;;;;;5030169;28;20045;-65
2022/01/28 07:47:30;;;;;;;16.38;8.98;;;;;;;;;;5029291;28;20053;-65
2022/01/28 07:49:57;;;;;;;15.05;8.93;;;;;;;;;;5029797;28;20045;-64
2022/01/28 07:52:23;;;;;;;16.77;10.05;;;;;;;;;;5029760;28;20053;-64
2022/01/28 07:54:50;;;;;;;15.82;9.13;;;;;;;;;;5029771;28;20053;-66
2022/01/28 07:57:17;;;;;;;15.38;8.77;;;;;;;;;;5030312;28;20072;-65
2022/01/28 07:59:43;;;;;;;15.45;9.13;;;;;;;;;;5029679;28;20157;-64
2022/01/28 08:02:10;;;;;;;13.50;8.70;;;;;;;;;;5029405;28;20045;-65
2022/01/28 08:04:38;;;;;;;16.25;8.65;;;;;;;;;;5029588;28;20053;-65
2022/01/28 08:07:05;;;;;;;14.65;8.52;;;;;;;;;;5024669;28;20630;-67
2022/01/28 08:09:32;;;;;;;18.42;9.82;;;;;;;;;;5025927;28;20095;-66
2022/01/28 08:11:59;;;;;;;15.68;8.50;;;;;;;;;;5029847;28;20053;-67
2022/01/28 08:14:26;;;;;;;17.00;9.05;;;;;;;;;;5025928;28;20471;-65
2022/01/28 08:16:53;;;;;;;16.88;8.70;;;;;;;;;;5027735;28;20057;-66
2022/01/28 08:19:20;;;;;;;16.90;8.40;;;;;;;;;;5028427;28;20153;-66
2022/01/28 08:21:46;;;;;;;16.77;8.55;;;;;;;;;;5027707;28;20108;-68
2022/01/28 08:24:13;;;;;;;17.13;9.63;;;;;;;;;;5027955;28;20471;-66
2022/01/28 08:26:40;;;;;;;17.55;8.70;;;;;;;;;;5027570;28;20095;-67
2022/01/28 08:29:06;;;;;;;13.57;8.27;;;;;;;;;;5027132;28;20053;-67
2022/01/28 08:31:34;;;;;;;11.85;7.47;;;;;;;;;;5027456;28;20068;-67
2022/01/28 08:34:01;;;;;;;17.85;8.23;;;;;;;;;;5027645;28;20050;-67
2022/01/28 08:36:28;;;;;;;12.68;7.35;;;;;;;;;;5029333;28;20100;-67
2022/01/28 08:38:56;;;;;;;11.70;6.95;;;;;;;;;;5027867;28;20573;-66
2022/01/28 08:41:23;;;;;;;14.68;7.45;;;;;;;;;;5029861;28;21522;-67
2022/01/28 08:43:51;;;;;;;11.02;6.38;;;;;;;;;;5031185;28;20064;-69
2022/01/28 08:46:18;;;;;;;12.23;6.20;;;;;;;;;;5032875;28;20049;-67
2022/01/28 08:48:45;;;;;;;14.95;6.60;;;;;;;;;;5033631;28;20057;-69
2022/01/28 08:51:12;;;;;;;11.60;6.93;;;;;;;;;;5033878;28;20045;-66
2022/01/28 08:53:39;;;;;;;14.25;8.02;;;;;;;;;;5032891;28;20076;-66
2022/01/28 08:56:06;;;;;;;15.25;7.60;;;;;;;;;;5033835;28;20148;-66
2022/01/28 08:58:33;;;;;;;16.00;7.57;;;;;;;;;;5033230;28;20061;-66
2022/01/28 09:01:00;;;;;;;12.57;6.25;;;;;;;;;;5032594;28;20045;-65
2022/01/28 09:03:29;;;;;;;12.05;5.88;;;;;;;;;;5028415;28;20045;-69
2022/01/28 09:05:57;;;;;;;7.95;5.32;;;;;;;;;;5021924;28;20041;-72
2022/01/28 09:08:24;;;;;;;13.60;7.30;;;;;;;;;;5032615;28;20099;-71
2022/01/28 09:10:59;;;;;;;15.23;6.53;;;;;;;;;;5032338;28;20084;-72
2022/01/28 09:13:30;;;;;;;10.80;5.47;;;;;;;;;;5030507;28;20049;-73
2022/01/28 09:15:57;;;;;;;8.68;5.68;;;;;;;;;;5031371;28;20045;-73
2022/01/28 09:18:24;;;;;;;9.52;5.07;;;;;;;;;;5032131;28;20059;-71
2022/01/28 09:20:51;;;;;;;9.43;5.20;;;;;;;;;;5032744;28;20103;-73
2022/01/28 09:23:18;;;;;;;10.55;5.45;;;;;;;;;;5031093;28;20484;-73
2022/01/28 09:25:45;;;;;;;10.60;5.43;;;;;;;;;;5032724;28;20053;-73
2022/01/28 09:28:12;;;;;;;8.70;4.78;;;;;;;;;;5032313;28;20096;-74
2022/01/28 09:30:38;;;;;;;7.90;4.43;;;;;;;;;;5033132;28;20057;-73
2022/01/28 09:33:05;;;;;;;8.98;4.72;;;;;;;;;;5033039;28;20053;-69
2022/01/28 09:35:33;;;;;;;12.82;4.72;;;;;;;;;;5032796;28;20049;-68
2022/01/28 09:38:00;;;;;;;7.97;3.75;;;;;;;;;;5034278;28;20111;-68
2022/01/28 09:40:27;;;;;;;11.23;4.50;;;;;;;;;;5033327;28;20042;-68
2022/01/28 09:42:54;;;;;;;7.32;3.88;;;;;;;;;;5032697;28;20049;-68
2022/01/28 09:45:24;;;;;;;10.70;4.32;;;;;;;;;;5032397;28;20103;-68
2022/01/28 09:47:53;;;;;;;7.07;3.30;;;;;;;;;;5031979;28;20103;-66
2022/01/28 09:50:21;;;;;;;8.93;3.35;;;;;;;;;;5031615;28;20049;-70
2022/01/28 09:52:52;;;;;;;9.25;3.25;;;;;;;;;;5030668;28;20053;-71
2022/01/28 09:55:19;;;;;;;8.35;3.67;;;;;;;;;;5030593;28;20049;-66
2022/01/28 09:57:51;;;;;;;5.55;3.35;;;;;;;;;;5031922;28;20058;-71
2022/01/28 10:00:20;;;;;;;9.07;2.92;;;;;;;;;;5007783;28;20394;-69
2022/01/28 10:02:51;;;;;;;8.27;3.95;;;;;;;;;;5014772;28;20046;-69
2022/01/28 10:05:26;;;;;;;8.90;3.80;;;;;;;;;;5029056;28;20514;-69
2022/01/28 10:08:06;;;;;;;12.57;3.30;;;;;;;;;;5030089;28;20119;-69
2022/01/28 10:10:55;;;;;;;9.95;3.78;;;;;;;;;;5031966;28;20401;-68
2022/01/28 10:13:35;;;;;;;8.55;3.75;;;;;;;;;;5032357;28;20045;-70
2022/01/28 10:16:05;;;;;;;6.78;3.40;;;;;;;;;;5029778;28;20123;-70
2022/01/28 10:18:47;;;;;;;12.60;3.10;;;;;;;;;;5030293;28;20045;-69
2022/01/28 10:21:15;;;;;;;8.77;3.78;;;;;;;;;;5031912;28;20088;-69
2022/01/28 10:23:41;;;;;;;5.75;3.83;;;;;;;;;;5031335;28;20041;-71
2022/01/28 10:26:08;;;;;;;10.00;3.40;;;;;;;;;;5032945;28;20053;-71
2022/01/28 10:28:35;;;;;;;8.18;3.50;;;;;;;;;;5032008;28;20057;-70
2022/01/28 10:31:04;;;;;;;9.95;3.05;;;;;;;;;;5031447;28;20501;-70
2022/01/28 10:33:31;;;;;;;5.97;2.85;;;;;;;;;;5031849;28;20045;-73
2022/01/28 10:35:59;;;;;;;8.88;3.25;;;;;;;;;;5032507;28;20493;-72
2022/01/28 10:38:41;;;;;;;5.00;2.35;;;;;;;;;;5031773;28;20053;-72
2022/01/28 10:41:15;;;;;;;6.85;3.08;;;;;;;;;;5030106;28;20049;-72
2022/01/28 10:43:51;;;;;;;7.03;2.67;;;;;;;;;;5030485;28;20050;-73
2022/01/28 10:46:26;;;;;;;9.02;2.50;;;;;;;;;;5031017;28;20069;-73
2022/01/28 10:48:55;;;;;;;7.10;2.47;;;;;;;;;;5031264;28;20042;-73
2022/01/28 10:51:23;;;;;;;7.72;3.17;;;;;;;;;;5031553;28;20496;-72
2022/01/28 10:54:14;;;;;;;7.78;3.13;;;;;;;;;;5031382;28;20137;-67
2022/01/28 10:56:47;;;;;;;7.10;2.35;;;;;;;;;;5030896;28;20111;-68
2022/01/28 10:59:18;;;;;;;8.63;2.35;;;;;;;;;;5030109;28;20131;-69
2022/01/28 11:01:45;;;;;;;7.45;2.13;;;;;;;;;;5030692;28;20053;-68
2022/01/28 11:04:13;;;;;;;7.68;2.42;;;;;;;;;;5030990;28;20041;-68
2022/01/28 11:06:41;;;;;;;7.97;3.20;;;;;;;;;;5029872;28;20099;-73
2022/01/28 11:09:08;;;;;;;6.15;2.78;;;;;;;;;;5032270;28;20045;-66
2022/01/28 11:11:37;;;;;;;6.32;3.25;;;;;;;;;;5030209;28;20439;-68
2022/01/28 11:14:04;;;;;;;7.57;2.75;;;;;;;;;;5030316;28;20077;-68
2022/01/28 11:16:30;;;;;;;4.30;2.00;;;;;;;;;;5031585;28;20053;-68
2022/01/28 11:18:58;;;;;;;10.18;4.05;;;;;;;;;;5031155;28;20057;-69
2022/01/28 11:21:46;;;;;;;4.50;2.47;;;;;;;;;;5030116;28;20053;-71
2022/01/28 11:24:27;;;;;;;8.75;2.38;;;;;;;;;;5031529;28;20045;-74
2022/01/28 11:27:18;;;;;;;11.30;2.92;;;;;;;;;;5029644;28;20045;-71
2022/01/28 11:29:46;;;;;;;8.23;2.92;;;;;;;;;;5003493;28;20049;-71
2022/01/28 11:32:15;;;;;;;7.15;3.08;;;;;;;;;;5019819;28;20048;-68
2022/01/28 11:34:58;;;;;;;9.23;3.25;;;;;;;;;;5030221;28;20045;-69
2022/01/28 11:37:25;;;;;;;;;;;;;;;;;;5030749;28;20053;-69
2022/01/28 11:39:51;;;;;;;6.93;3.10;;;;;;;;;;5027852;28;19976;-68
2022/01/28 11:42:29;;;;;;;10.15;3.78;;;;;;;;;;5026888;28;20041;-68
2022/01/28 11:44:59;;;;;;;3.97;2.47;;;;;;;;;;5025619;28;20104;-68
2022/01/28 11:47:32;;;;;;;9.75;3.22;;;;;;;;;;5028465;28;20107;-68
2022/01/28 11:50:08;;;;;;;7.13;3.78;;;;;;;;;;5028248;28;20049;-67
2022/01/28 11:52:42;;;;;;;9.63;4.07;;;;;;;;;;5024258;28;20053;-67
2022/01/28 11:55:15;;;;;;;8.63;4.15;;;;;;;;;;5028429;28;20543;-68
2022/01/28 11:57:54;;;;;;;9.65;3.95;;;;;;;;;;5027507;28;20119;-67
2022/01/28 12:00:23;;;;;;;7.57;3.92;;;;;;;;;;5025036;28;20049;-68
2022/01/28 12:02:52;;;;;;;10.23;4.10;;;;;;;;;;5027506;28;20464;-69
2022/01/28 12:05:45;;;;;;;12.20;4.78;;;;;;;;;;5025842;28;20133;-71
2022/01/28 12:08:13;;;;;;;9.10;3.97;;;;;;;;;;5028866;28;20095;-71
2022/01/28 12:10:44;;;;;;;9.60;3.30;;;;;;;;;;5028886;28;20049;-67
2022/01/28 12:13:17;;;;;;;10.57;4.13;;;;;;;;;;5029505;28;20050;-68
2022/01/28 12:18:54;;;;;;;7.40;3.30;;;;;;;;;;5029133;28;20053;-68
2022/01/28 12:21:24;;;;;;;7.32;2.97;;;;;;;;;;5032277;28;20049;-68
2022/01/28 12:24:15;;;;;;;7.30;3.72;;;;;;;;;;5032800;28;20057;-69
2022/01/28 12:27:01;;;;;;;6.72;4.35;;;;;;;;;;5032412;28;20115;-70
2022/01/28 12:29:31;;;;;;;8.07;3.60;;;;;;;;;;5031395;28;20056;-69
2022/01/28 12:32:04;;;;;;;6.30;2.88;;;;;;;;;;5032728;28;20468;-68
2022/01/28 12:34:32;;;;;;;7.32;3.20;;;;;;;;;;5033466;28;20049;-69
2022/01/28 12:36:59;;;;;;;8.50;3.60;;;;;;;;;;5034311;28;20049;-67
2022/01/28 12:39:39;;;;;;;10.73;3.35;;;;;;;;;;5033618;28;20088;-69
2022/01/28 12:44:57;;;;;;;5.97;3.53;;;;;;;;;;5034728;28;20434;-76
2022/01/28 12:47:24;;;;;;;7.97;3.50;;;;;;;;;;5032647;28;20107;-69
2022/01/28 12:49:55;;;;;;;7.88;4.20;;;;;;;;;;5032999;28;20053;-70
2022/01/28 12:52:23;;;;;;;7.95;3.38;;;;;;;;;;5033627;28;20492;-73
2022/01/28 12:54:50;;;;;;;7.78;3.83;;;;;;;;;;5033179;28;20492;-73
2022/01/28 12:57:18;;;;;;;6.32;3.40;;;;;;;;;;5033564;28;20120;-67
2022/01/28 12:59:47;;;;;;;7.60;3.33;;;;;;;;;;5033462;28;20131;-67
2022/01/28 13:02:15;;;;;;;10.85;4.53;;;;;;;;;;5030015;28;20050;-68
2022/01/28 13:10:32;;;;;;;8.88;4.63;;;;;;;;;;5031866;28;20049;-68
2022/01/28 13:13:08;;;;;;;9.20;4.50;;;;;;;;;;5028737;28;20573;-68
2022/01/28 13:15:36;;;;;;;10.80;5.25;;;;;;;;;;5040939;28;20150;-69
2022/01/28 13:18:05;;;;;;;8.13;4.68;;;;;;;;;;5033110;28;20045;-67
2022/01/28 13:20:40;;;;;;;10.77;5.10;;;;;;;;;;5032787;28;20045;-66
2022/01/28 13:23:09;;;;;;;11.35;5.90;;;;;;;;;;5031064;28;20546;-69
2022/01/28 13:25:36;;;;;;;14.65;6.22;;;;;;;;;;5032741;28;20088;-70
2022/01/28 13:28:09;;;;;;;9.93;6.03;;;;;;;;;;5032978;28;20091;-69
2022/01/28 13:30:39;;;;;;;11.48;5.85;;;;;;;;;;5031143;28;20057;-67
2022/01/28 13:33:08;;;;;;;11.13;5.43;;;;;;;;;;5032960;28;20505;-67
2022/01/28 13:35:37;;;;;;;12.25;5.80;;;;;;;;;;5032535;28;20068;-68
2022/01/28 13:38:17;;;;;;;13.20;5.03;;;;;;;;;;5032851;28;20453;-67
2022/01/28 13:40:44;;;;;;;12.05;5.50;;;;;;;;;;5033123;28;20504;-69
2022/01/28 13:43:17;;;;;;;13.60;5.97;;;;;;;;;;5032271;28;20480;-68
2022/01/28 13:45:49;;;;;;;13.30;5.45;;;;;;;;;;5032482;28;20076;-70
2022/01/28 13:48:20;;;;;;;11.45;6.63;;;;;;;;;;5032054;28;20049;-69
2022/01/28 13:50:49;;;;;;;12.85;6.05;;;;;;;;;;5032589;28;20497;-70
2022/01/28 13:55:59;;;;;;;13.27;5.78;;;;;;;;;;5032247;28;20045;-70
2022/01/28 13:58:26;;;;;;;10.85;5.68;;;;;;;;;;5032176;28;20578;-69
2022/01/28 14:00:53;;;;;;;12.07;5.78;;;;;;;;;;5032254;28;20053;-69
2022/01/28 14:03:27;;;;;;;9.18;5.43;;;;;;;;;;5032016;28;20053;-68
2022/01/28 14:05:59;;;;;;;10.25;5.65;;;;;;;;;;5021286;28;20455;-68
2022/01/28 14:08:52;;;;;;;11.07;5.85;;;;;;;;;;5030881;28;20089;-67
2022/01/28 14:11:29;;;;;;;9.98;6.07;;;;;;;;;;5032045;28;20049;-66
2022/01/28 14:14:16;;;;;;;10.13;5.95;;;;;;;;;;5029254;28;20455;-68
2022/01/28 14:16:50;;;;;;;13.30;6.05;;;;;;;;;;5028458;28;20060;-67
2022/01/28 14:19:16;;;;;;;14.75;6.97;;;;;;;;;;5031700;28;20049;-73
2022/01/28 14:21:44;;;;;;;11.13;6.25;;;;;;;;;;5031821;28;20431;-71
2022/01/28 14:24:16;;;;;;;15.45;6.80;;;;;;;;;;5030485;28;20041;-73
2022/01/28 14:26:44;;;;;;;13.43;7.13;;;;;;;;;;5031066;28;20053;-75
2022/01/28 14:29:23;;;;;;;11.88;5.85;;;;;;;;;;5032215;28;20091;-76
2022/01/28 14:31:51;;;;;;;17.10;6.38;;;;;;;;;;5015950;28;20045;-71
2022/01/28 14:34:18;;;;;;;10.70;6.03;;;;;;;;;;5029855;28;20566;-69
2022/01/28 14:36:45;;;;;;;12.02;5.47;;;;;;;;;;5032031;28;20053;-66
2022/01/28 14:39:14;;;;;;;11.75;5.30;;;;;;;;;;5031824;28;20111;-65
2022/01/28 14:41:47;;;;;;;13.00;5.75;;;;;;;;;;5030260;28;20081;-67
2022/01/28 14:44:13;;;;;;;14.18;6.65;;;;;;;;;;5031518;28;20037;-70
2022/01/28 14:46:40;;;;;;;10.13;5.20;;;;;;;;;;5026753;28;20053;-66
2022/01/28 14:49:07;;;;;;;10.63;5.65;;;;;;;;;;5031553;28;20045;-68
2022/01/28 14:51:35;;;;;;;11.02;5.50;;;;;;;;;;5031017;28;20056;-68
2022/01/28 14:54:02;;;;;;;9.60;5.55;;;;;;;;;;5030658;28;20047;-67
2022/01/28 14:56:29;;;;;;;10.65;5.22;;;;;;;;;;5030235;28;20049;-68
2022/01/28 14:58:57;;;;;;;12.25;6.50;;;;;;;;;;5030572;28;20084;-68
2022/01/28 15:01:24;;;;;;;13.27;6.80;;;;;;;;;;5031026;28;20559;-68
2022/01/28 15:03:51;;;;;;;13.90;5.68;;;;;;;;;;5030761;28;20053;-68
2022/01/28 15:06:18;;;;;;;12.00;5.93;;;;;;;;;;5031155;28;20059;-67
2022/01/28 15:08:45;;;;;;;10.63;6.38;;;;;;;;;;5030965;28;20057;-68
2022/01/28 15:11:22;;;;;;;13.57;5.43;;;;;;;;;;5030598;28;20128;-68
2022/01/28 15:13:49;;;;;;;9.93;5.50;;;;;;;;;;5027237;28;20042;-68
2022/01/28 15:16:17;;;;;;;14.70;5.75;;;;;;;;;;5030558;28;20053;-67
2022/01/28 15:18:44;;;;;;;15.82;6.18;;;;;;;;;;5030793;28;20471;-67
2022/01/28 15:21:11;;;;;;;14.00;5.72;;;;;;;;;;5031228;28;20045;-67
2022/01/28 15:23:40;;;;;;;11.15;5.25;;;;;;;;;;5029843;28;20079;-67
2022/01/28 15:26:08;;;;;;;17.77;6.43;;;;;;;;;;5030858;28;20500;-68
2022/01/28 15:28:49;;;;;;;20.95;7.68;;;;;;;;;;5030665;28;20048;-68
2022/01/28 15:34:23;;;;;;;10.90;6.15;;;;;;;;;;5026813;28;20046;-67
2022/01/28 15:36:49;;;;;;;12.45;5.65;;;;;;;;;;5029200;28;20491;-67
2022/01/28 15:39:16;;;;;;;17.40;6.65;;;;;;;;;;5029647;28;20041;-67
2022/01/28 15:41:42;;;;;;;15.32;6.20;;;;;;;;;;5030681;28;20095;-66
2022/01/28 15:44:09;;;;;;;11.55;5.82;;;;;;;;;;5030382;28;20064;-67
2022/01/28 15:46:37;;;;;;;10.60;5.82;;;;;;;;;;5030235;28;20413;-64
2022/01/28 15:49:08;;;;;;;12.02;5.60;;;;;;;;;;5030416;28;20043;-67
2022/01/28 15:51:35;;;;;;;11.52;5.82;;;;;;;;;;5029973;28;20045;-72
2022/01/28 15:54:02;;;;;;;12.93;6.20;;;;;;;;;;5029996;28;20137;-67
2022/01/28 15:56:29;;;;;;;14.75;7.07;;;;;;;;;;5030344;28;20046;-69
2022/01/28 15:58:55;;;;;;;17.05;5.93;;;;;;;;;;5030572;28;20452;-71
2022/01/28 16:01:24;;;;;;;16.27;7.18;;;;;;;;;;5026305;28;20115;-73
2022/01/28 16:03:51;;;;;;;13.43;6.00;;;;;;;;;;5028990;28;20515;-76
2022/01/28 16:06:19;;;;;;;14.25;6.95;;;;;;;;;;5029484;28;20060;-75
2022/01/28 16:08:46;;;;;;;16.30;7.30;;;;;;;;;;5028876;28;20394;-73
2022/01/28 16:11:16;;;;;;;25.95;7.97;;;;;;;;;;5029907;28;20420;-72
2022/01/28 16:18:58;;;;;;;29.15;8.57;;;;;;;;;;5029080;28;20132;-70
2022/01/28 16:21:26;;;;;;;21.23;7.68;;;;;;;;;;5030046;28;20509;-69
2022/01/28 16:23:53;;;;;;;19.42;8.70;;;;;;;;;;5029257;28;20408;-68
2022/01/28 16:26:20;;;;;;;13.23;6.57;;;;;;;;;;5028733;28;20115;-68
2022/01/28 16:28:47;;;;;;;12.25;6.53;;;;;;;;;;5029081;28;20053;-68
2022/01/28 16:31:14;;;;;;;15.15;7.07;;;;;;;;;;5029559;28;20235;-67
2022/01/28 16:33:41;;;;;;;12.90;7.55;;;;;;;;;;5029054;28;20562;-67
2022/01/28 16:36:12;;;;;;;14.32;7.53;;;;;;;;;;5029989;28;20049;-69
2022/01/28 16:38:39;;;;;;;15.07;7.60;;;;;;;;;;5022700;28;20294;-68
2022/01/28 16:41:10;;;;;;;17.10;6.38;;;;;;;;;;5029546;28;20053;-68
2022/01/28 16:43:45;;;;;;;15.40;6.90;;;;;;;;;;5029427;28;20462;-67
2022/01/28 16:46:12;;;;;;;12.98;6.80;;;;;;;;;;5029738;28;20108;-67
2022/01/28 16:48:38;;;;;;;13.35;6.30;;;;;;;;;;5028192;28;20053;-67
2022/01/28 16:51:05;;;;;;;10.60;6.75;;;;;;;;;;5028468;28;20053;-72
2022/01/28 16:53:32;;;;;;;14.55;6.43;;;;;;;;;;5028939;28;20504;-69
2022/01/28 16:55:58;;;;;;;13.52;7.90;;;;;;;;;;5030751;28;20083;-70
2022/01/28 16:58:25;;;;;;;14.65;7.65;;;;;;;;;;5030133;28;20053;-71
2022/01/28 17:00:53;;;;;;;15.93;8.00;;;;;;;;;;5020549;28;20049;-68
2022/01/28 17:03:20;;;;;;;13.60;7.40;;;;;;;;;;5028135;28;20057;-66
2022/01/28 17:05:47;;;;;;;15.18;7.70;;;;;;;;;;5032254;28;20102;-69
2022/01/28 17:08:14;;;;;;;17.63;7.25;;;;;;;;;;5032263;28;20103;-69
2022/01/28 17:10:45;;;;;;;12.60;6.47;;;;;;;;;;5033629;28;20049;-69
2022/01/28 17:13:13;;;;;;;13.90;6.72;;;;;;;;;;5031443;28;20455;-64
2022/01/28 17:15:43;;;;;;;12.77;6.80;;;;;;;;;;5032617;28;20455;-66
2022/01/28 17:18:10;;;;;;;13.52;7.22;;;;;;;;;;5032689;28;20144;-65
2022/01/28 17:20:37;;;;;;;13.63;7.03;;;;;;;;;;5030394;28;20493;-68
2022/01/28 17:23:04;;;;;;;16.95;7.53;;;;;;;;;;5030903;28;20652;-66
2022/01/28 17:25:30;;;;;;;14.25;7.05;;;;;;;;;;5030916;28;20045;-68
2022/01/28 17:27:57;;;;;;;14.93;7.25;;;;;;;;;;5031099;28;20042;-69
2022/01/28 17:30:28;;;;;;;12.13;6.68;;;;;;;;;;5030485;28;20170;-70
2022/01/28 17:32:56;;;;;;;12.77;7.93;;;;;;;;;;5030073;28;20049;-68
2022/01/28 17:35:25;;;;;;;12.20;6.35;;;;;;;;;;5030861;28;20084;-67
2022/01/28 17:37:53;;;;;;;10.68;6.75;;;;;;;;;;5027098;28;20049;-67
2022/01/28 17:40:20;;;;;;;11.80;7.00;;;;;;;;;;5030654;28;20057;-67
2022/01/28 17:42:46;;;;;;;14.65;6.90;;;;;;;;;;5028249;28;20107;-65
2022/01/28 17:45:21;;;;;;;12.30;7.20;;;;;;;;;;5026161;28;20045;-66